createdAt,value
2023-05-19T00:01:57.056Z,101468.89
2023-05-19T00:04:32.096Z,101463.14
2023-05-19T00:07:08.650Z,101461.87
2023-05-19T00:09:43.364Z,101460.32
2023-05-19T00:12:19.522Z,101456.42
2023-05-19T00:14:54.433Z,101457.05
2023-05-19T00:17:28.823Z,101458.21
2023-05-19T00:20:08.196Z,101460.27
2023-05-19T00:22:44.444Z,101457.94
2023-05-19T00:25:18.356Z,101456.73
2023-05-19T00:27:52.183Z,101457.21
2023-05-19T00:30:26.101Z,101456.27
2023-05-19T00:32:59.975Z,101459.09
2023-05-19T00:35:33.691Z,101460.86
2023-05-19T00:38:07.481Z,101460.37
2023-05-19T00:40:41.466Z,101463.52
2023-05-19T00:43:16.040Z,101459.85
2023-05-19T00:45:50.104Z,101460.09
2023-05-19T00:48:23.698Z,101460.88
2023-05-19T00:51:02.719Z,101461.43
2023-05-19T00:53:37.568Z,101456.29
2023-05-19T00:56:11.528Z,101456.84
2023-05-19T00:58:45.654Z,101451.47
2023-05-19T01:01:21.831Z,101451.70
2023-05-19T01:03:59.554Z,101449.77
2023-05-19T01:06:33.992Z,101446.35
2023-05-19T01:09:08.003Z,101441.52
2023-05-19T01:11:41.630Z,101442.66
2023-05-19T01:14:16.111Z,101440.75
2023-05-19T01:16:56.953Z,101438.40
2023-05-19T01:19:53.119Z,101439.91
2023-05-19T01:22:55.687Z,101438.90
2023-05-19T01:25:54.288Z,101438.93
2023-05-19T01:28:33.666Z,101439.43
2023-05-19T01:31:09.109Z,101436.70
2023-05-19T01:33:45.109Z,101432.73
2023-05-19T01:36:20.908Z,101434.25
2023-05-19T01:38:57.710Z,101431.91
2023-05-19T01:41:32.971Z,101434.45
2023-05-19T01:44:07.000Z,101433.16
2023-05-19T01:46:41.467Z,101429.75
2023-05-19T01:49:15.254Z,101428.39
2023-05-19T01:51:52.446Z,101426.10
2023-05-19T01:54:26.475Z,101424.84
2023-05-19T01:57:07.577Z,101425.39
2023-05-19T01:59:54.156Z,101422.39
2023-05-19T02:02:45.111Z,101419.42
2023-05-19T02:05:30.217Z,101418.60
2023-05-19T02:08:13.511Z,101418.70
2023-05-19T02:10:53.663Z,101416.96
2023-05-19T02:13:31.258Z,101418.35
2023-05-19T02:16:07.688Z,101416.45
2023-05-19T02:18:46.185Z,101418.38
2023-05-19T02:21:19.976Z,101418.61
2023-05-19T02:23:54.422Z,101416.96
2023-05-19T02:26:27.940Z,101418.60
2023-05-19T02:29:01.965Z,101417.06
2023-05-19T02:31:35.443Z,101416.52
2023-05-19T02:34:09.169Z,101414.02
2023-05-19T02:36:44.759Z,101415.46
2023-05-19T02:39:19.153Z,101416.24
2023-05-19T02:41:54.210Z,101416.17
2023-05-19T02:44:28.016Z,101416.13
2023-05-19T02:47:02.266Z,101418.64
2023-05-19T02:49:36.655Z,101419.25
2023-05-19T02:52:10.666Z,101420.73
2023-05-19T02:54:44.736Z,101421.88
2023-05-19T02:57:18.581Z,101421.45
2023-05-19T02:59:52.775Z,101418.33
2023-05-19T03:02:26.590Z,101420.30
2023-05-19T03:05:05.707Z,101419.84
2023-05-19T03:07:39.412Z,101421.14
2023-05-19T03:10:14.100Z,101422.04
2023-05-19T03:12:47.823Z,101422.44
2023-05-19T03:15:23.615Z,101424.95
2023-05-19T03:17:57.445Z,101427.12
2023-05-19T03:20:32.313Z,101428.00
2023-05-19T03:23:05.760Z,101427.14
2023-05-19T03:25:39.766Z,101428.44
2023-05-19T03:28:13.210Z,101424.63
2023-05-19T03:30:49.610Z,101427.03
2023-05-19T03:33:28.412Z,101425.75
2023-05-19T03:36:02.678Z,101428.67
2023-05-19T03:38:38.900Z,101426.94
2023-05-19T03:41:12.750Z,101426.79
2023-05-19T03:43:46.816Z,101425.55
2023-05-19T03:46:21.596Z,101425.34
2023-05-19T03:48:58.932Z,101428.27
2023-05-19T03:52:03.758Z,101426.06
2023-05-19T03:54:43.099Z,101425.07
2023-05-19T03:57:17.040Z,101424.06
2023-05-19T03:59:50.576Z,101423.96
2023-05-19T04:02:24.286Z,101424.09
2023-05-19T04:04:58.325Z,101427.34
2023-05-19T04:07:31.997Z,101431.70
2023-05-19T04:10:08.367Z,101431.10
2023-05-19T04:12:42.470Z,101429.98
2023-05-19T04:15:16.577Z,101429.73
2023-05-19T04:17:50.447Z,101431.45
2023-05-19T04:20:25.298Z,101432.54
2023-05-19T04:22:59.152Z,101430.90
2023-05-19T04:25:33.954Z,101431.39
2023-05-19T04:28:08.098Z,101430.41
2023-05-19T04:30:42.993Z,101427.81
2023-05-19T04:33:16.845Z,101428.15
2023-05-19T04:35:52.053Z,101427.48
2023-05-19T04:38:26.481Z,101427.02
2023-05-19T04:41:02.202Z,101426.30
2023-05-19T04:43:36.155Z,101429.77
2023-05-19T04:46:13.252Z,101430.23
2023-05-19T04:48:48.026Z,101425.77
2023-05-19T04:51:21.809Z,101431.85
2023-05-19T04:53:56.048Z,101430.73
2023-05-19T04:56:30.389Z,101429.58
2023-05-19T04:59:04.091Z,101431.20
2023-05-19T05:01:41.497Z,101427.34
2023-05-19T05:04:15.548Z,101429.52
2023-05-19T05:06:49.253Z,101433.05
2023-05-19T05:09:24.738Z,101431.73
2023-05-19T05:12:00.040Z,101434.98
2023-05-19T05:14:35.288Z,101434.16
2023-05-19T05:17:12.399Z,101430.41
2023-05-19T05:19:47.428Z,101425.61
2023-05-19T05:22:22.555Z,101427.64
2023-05-19T05:24:57.779Z,101431.45
2023-05-19T05:27:31.646Z,101432.20
2023-05-19T05:30:05.890Z,101430.89
2023-05-19T05:32:39.876Z,101431.27
2023-05-19T05:35:16.670Z,101433.05
2023-05-19T05:37:51.281Z,101429.48
2023-05-19T05:40:25.323Z,101431.55
2023-05-19T05:42:59.787Z,101432.63
2023-05-19T05:45:35.936Z,101430.22
2023-05-19T05:48:12.420Z,101429.94
2023-05-19T05:50:47.197Z,101429.82
2023-05-19T05:53:27.023Z,101429.09
2023-05-19T05:56:02.308Z,101427.84
2023-05-19T05:58:44.368Z,101427.52
2023-05-19T06:01:18.296Z,101426.89
2023-05-19T06:04:03.909Z,101423.78
2023-05-19T06:06:39.373Z,101426.65
2023-05-19T06:09:13.333Z,101427.63
2023-05-19T06:11:46.875Z,101429.77
2023-05-19T06:14:20.721Z,101430.96
2023-05-19T06:17:11.917Z,101432.45
2023-05-19T06:19:48.142Z,101431.91
2023-05-19T06:22:22.371Z,101434.15
2023-05-19T06:25:00.170Z,101434.44
2023-05-19T06:27:34.813Z,101435.67
2023-05-19T06:30:11.363Z,101434.80
2023-05-19T06:32:54.128Z,101438.08
2023-05-19T06:35:28.417Z,101440.27
2023-05-19T06:38:02.160Z,101437.56
2023-05-19T06:40:37.301Z,101432.88
2023-05-19T06:43:11.043Z,101435.38
2023-05-19T06:46:00.500Z,101433.06
2023-05-19T06:48:35.850Z,101430.54
2023-05-19T06:51:11.069Z,101431.39
2023-05-19T06:53:49.027Z,101429.44
2023-05-19T06:57:12.094Z,101433.79
2023-05-19T07:00:14.621Z,101431.10
2023-05-19T07:03:09.114Z,101428.70
2023-05-19T07:05:50.130Z,101431.41
2023-05-19T07:09:02.832Z,101432.65
2023-05-19T07:12:12.867Z,101427.88
2023-05-19T07:15:22.826Z,101425.23
2023-05-19T07:18:17.945Z,101423.39
2023-05-19T07:21:24.534Z,101423.83
2023-05-19T07:24:51.165Z,101426.37
2023-05-19T07:27:25.702Z,101427.09
2023-05-19T07:29:59.930Z,101432.05
2023-05-19T07:32:33.909Z,101428.52
2023-05-19T07:35:08.525Z,101428.75
2023-05-19T07:37:42.409Z,101427.34
2023-05-19T07:40:16.975Z,101430.66
2023-05-19T07:42:51.849Z,101428.36
2023-05-19T07:45:26.264Z,101428.39
2023-05-19T07:48:00.293Z,101432.35
2023-05-19T07:50:34.554Z,101431.50
2023-05-19T07:53:08.276Z,101428.02
2023-05-19T07:55:41.990Z,101430.89
2023-05-19T07:58:16.036Z,101433.94
2023-05-19T08:00:49.920Z,101433.70
2023-05-19T08:03:24.316Z,101433.95
2023-05-19T08:05:58.368Z,101434.62
2023-05-19T08:08:33.817Z,101434.04
2023-05-19T08:11:08.367Z,101429.37
2023-05-19T08:13:42.864Z,101431.15
2023-05-19T08:16:16.700Z,101435.91
2023-05-19T08:18:50.570Z,101435.34
2023-05-19T08:21:24.209Z,101435.06
2023-05-19T08:23:58.276Z,101431.45
2023-05-19T08:26:32.061Z,101431.27
2023-05-19T08:29:05.927Z,101432.39
2023-05-19T08:31:39.811Z,101431.30
2023-05-19T08:34:13.507Z,101432.55
2023-05-19T08:36:48.089Z,101428.23
2023-05-19T08:39:27.333Z,101426.18
2023-05-19T08:42:00.931Z,101430.80
2023-05-19T08:44:35.045Z,101431.09
2023-05-19T08:47:14.434Z,101427.52
2023-05-19T08:49:54.419Z,101425.91
2023-05-19T08:52:34.729Z,101425.59
2023-05-19T08:55:17.978Z,101424.02
2023-05-19T08:57:52.860Z,101428.08
2023-05-19T09:00:27.398Z,101433.16
2023-05-19T09:05:40.556Z,101429.61
2023-05-19T09:08:15.121Z,101433.27
2023-05-19T09:10:49.185Z,101437.49
2023-05-19T09:13:23.097Z,101436.00
2023-05-19T09:15:58.079Z,101434.23
2023-05-19T09:18:32.227Z,101431.60
2023-05-19T09:21:06.313Z,101431.83
2023-05-19T09:23:41.027Z,101429.85
2023-05-19T09:26:16.914Z,101429.93
2023-05-19T09:28:50.993Z,101430.48
2023-05-19T09:31:24.592Z,101430.22
2023-05-19T09:33:58.323Z,101429.57
2023-05-19T09:36:32.897Z,101429.02
2023-05-19T09:39:16.972Z,101428.77
2023-05-19T09:41:53.173Z,101426.41
2023-05-19T09:44:29.950Z,101424.81
2023-05-19T09:47:03.903Z,101424.66
2023-05-19T09:49:37.631Z,101426.31
2023-05-19T09:52:12.713Z,101427.83
2023-05-19T09:54:48.795Z,101430.73
2023-05-19T09:57:30.096Z,101428.29
2023-05-19T10:00:04.394Z,101431.23
2023-05-19T10:02:38.662Z,101432.23
2023-05-19T10:05:17.645Z,101432.02
2023-05-19T10:07:54.872Z,101433.75
2023-05-19T10:10:30.394Z,101431.56
2023-05-19T10:13:05.863Z,101430.03
2023-05-19T10:15:50.063Z,101425.20
2023-05-19T10:18:32.684Z,101426.55
2023-05-19T10:21:07.926Z,101419.38
2023-05-19T10:23:42.332Z,101416.95
2023-05-19T10:26:17.074Z,101412.89
2023-05-19T10:28:52.343Z,101412.76
2023-05-19T10:31:27.583Z,101417.48
2023-05-19T10:34:26.024Z,101415.29
2023-05-19T10:37:10.585Z,101406.98
2023-05-19T10:39:46.000Z,101407.04
2023-05-19T10:42:28.274Z,101407.64
2023-05-19T10:45:15.321Z,101407.95
2023-05-19T10:47:52.082Z,101404.69
2023-05-19T10:50:25.934Z,101404.23
2023-05-19T10:53:00.553Z,101405.17
2023-05-19T10:55:53.225Z,101400.84
2023-05-19T10:58:52.613Z,101401.95
2023-05-19T11:01:32.546Z,101404.71
2023-05-19T11:04:14.391Z,101402.20
2023-05-19T11:06:54.380Z,101398.71
2023-05-19T11:09:37.983Z,101398.59
2023-05-19T11:12:14.752Z,101398.42
2023-05-19T11:14:48.917Z,101398.11
2023-05-19T11:17:24.146Z,101403.38
2023-05-19T11:19:59.713Z,101402.91
2023-05-19T11:22:36.337Z,101402.06
2023-05-19T11:25:11.163Z,101402.52
2023-05-19T11:27:48.343Z,101404.18
2023-05-19T11:30:22.278Z,101403.61
2023-05-19T11:32:58.343Z,101401.93
2023-05-19T11:35:36.284Z,101404.48
2023-05-19T11:38:10.511Z,101404.72
2023-05-19T11:40:45.862Z,101404.52
2023-05-19T11:43:19.855Z,101404.77
2023-05-19T11:45:55.224Z,101401.60
2023-05-19T11:48:31.610Z,101403.08
2023-05-19T11:51:05.865Z,101402.60
2023-05-19T11:53:39.337Z,101401.30
2023-05-19T11:56:15.548Z,101403.27
2023-05-19T11:58:49.598Z,101400.11
2023-05-19T12:01:27.498Z,101402.02
2023-05-19T12:04:01.344Z,101402.83
2023-05-19T12:06:35.841Z,101404.59
2023-05-19T12:09:11.410Z,101403.17
2023-05-19T12:11:45.265Z,101403.73
2023-05-19T12:14:19.168Z,101403.16
2023-05-19T12:16:53.263Z,101406.84
2023-05-19T12:19:28.252Z,101408.63
2023-05-19T12:22:03.477Z,101405.29
2023-05-19T12:24:39.040Z,101404.58
2023-05-19T12:27:20.779Z,101402.49
2023-05-19T12:29:55.603Z,101402.27
2023-05-19T12:32:30.351Z,101401.50
2023-05-19T12:35:06.641Z,101398.10
2023-05-19T12:37:43.267Z,101400.52
2023-05-19T12:40:18.819Z,101403.97
2023-05-19T12:42:59.227Z,101401.85
2023-05-19T12:45:38.881Z,101402.39
2023-05-19T12:48:17.433Z,101401.50
2023-05-19T12:50:53.585Z,101400.75
2023-05-19T12:53:29.997Z,101396.61
2023-05-19T12:56:03.872Z,101394.23
2023-05-19T12:58:39.352Z,101392.40
2023-05-19T13:01:20.640Z,101389.91
2023-05-19T13:03:55.121Z,101389.05
2023-05-19T13:06:29.593Z,101387.34
2023-05-19T13:09:03.571Z,101391.52
2023-05-19T13:11:36.918Z,101395.64
2023-05-19T13:14:10.871Z,101397.45
2023-05-19T13:16:44.602Z,101393.27
2023-05-19T13:21:57.832Z,101395.40
2023-05-19T13:24:31.461Z,101395.13
2023-05-19T13:27:06.057Z,101397.36
2023-05-19T13:29:39.878Z,101393.09
2023-05-19T13:32:13.643Z,101394.90
2023-05-19T13:34:47.628Z,101393.40
2023-05-19T13:37:21.585Z,101396.45
2023-05-19T13:39:55.824Z,101393.80
2023-05-19T13:42:29.648Z,101392.26
2023-05-19T13:45:03.137Z,101390.63
2023-05-19T13:47:36.856Z,101388.67
2023-05-19T13:50:11.498Z,101389.71
2023-05-19T13:52:45.719Z,101387.08
2023-05-19T13:55:19.843Z,101387.95
2023-05-19T13:57:54.093Z,101390.37
2023-05-19T14:00:28.841Z,101388.33
2023-05-19T14:03:02.675Z,101387.17
2023-05-19T14:05:37.701Z,101387.89
2023-05-19T14:08:12.817Z,101386.14
2023-05-19T14:10:47.547Z,101386.20
2023-05-19T14:13:32.578Z,101389.84
2023-05-19T14:16:10.175Z,101391.04
2023-05-19T14:18:44.125Z,101391.67
2023-05-19T14:21:18.312Z,101394.12
2023-05-19T14:23:51.874Z,101391.52
2023-05-19T14:26:28.069Z,101389.57
2023-05-19T14:29:04.737Z,101391.49
2023-05-19T14:31:39.095Z,101389.75
2023-05-19T14:34:13.110Z,101391.05
2023-05-19T14:36:47.193Z,101394.95
2023-05-19T14:39:21.521Z,101400.05
2023-05-19T14:41:56.584Z,101396.70
2023-05-19T14:44:34.413Z,101395.23
2023-05-19T14:47:11.914Z,101392.84
2023-05-19T14:49:46.021Z,101392.05
2023-05-19T14:52:20.212Z,101389.63
2023-05-19T14:54:53.951Z,101387.52
2023-05-19T14:57:28.054Z,101389.92
2023-05-19T15:00:02.089Z,101393.20
2023-05-19T15:02:35.837Z,101393.39
2023-05-19T15:05:12.105Z,101398.26
2023-05-19T15:07:49.479Z,101398.17
2023-05-19T15:10:24.711Z,101400.48
2023-05-19T15:12:59.916Z,101403.61
2023-05-19T15:15:34.399Z,101408.19
2023-05-19T15:18:08.763Z,101413.19
2023-05-19T15:20:42.866Z,101414.41
2023-05-19T15:23:16.811Z,101413.06
2023-05-19T15:25:51.353Z,101409.63
2023-05-19T15:28:27.229Z,101407.45
2023-05-19T15:31:00.967Z,101408.68
2023-05-19T15:33:34.738Z,101407.87
2023-05-19T15:36:09.195Z,101406.45
2023-05-19T15:38:42.672Z,101403.49
2023-05-19T15:41:16.621Z,101399.61
2023-05-19T15:43:50.575Z,101399.94
2023-05-19T15:46:24.213Z,101396.20
2023-05-19T15:48:58.221Z,101397.05
2023-05-19T15:51:32.151Z,101397.55
2023-05-19T15:54:05.834Z,101397.13
2023-05-19T15:56:39.794Z,101398.41
2023-05-19T15:59:13.576Z,101392.69
2023-05-19T16:01:47.627Z,101390.70
2023-05-19T16:04:21.995Z,101391.54
2023-05-19T16:06:55.698Z,101386.89
2023-05-19T16:09:29.672Z,101380.70
2023-05-19T16:12:03.597Z,101383.49
2023-05-19T16:14:38.220Z,101386.38
2023-05-19T16:17:14.161Z,101384.63
2023-05-19T16:19:48.501Z,101383.52
2023-05-19T16:22:25.331Z,101383.73
2023-05-19T16:24:58.891Z,101384.02
2023-05-19T16:27:33.050Z,101385.34
2023-05-19T16:30:07.648Z,101382.56
2023-05-19T16:32:41.310Z,101380.27
2023-05-19T16:35:15.670Z,101381.44
2023-05-19T16:37:49.639Z,101381.92
2023-05-19T16:40:23.100Z,101381.09
2023-05-19T16:42:57.643Z,101382.38
2023-05-19T16:45:31.702Z,101382.25
2023-05-19T16:48:05.372Z,101383.77
2023-05-19T16:50:40.035Z,101385.69
2023-05-19T16:53:13.648Z,101382.73
2023-05-19T16:55:47.727Z,101378.68
2023-05-19T16:58:21.265Z,101380.57
2023-05-19T17:00:58.816Z,101379.25
2023-05-19T17:03:32.731Z,101377.77
2023-05-19T17:06:06.508Z,101379.42
2023-05-19T17:08:40.168Z,101380.67
2023-05-19T17:11:14.039Z,101382.69
2023-05-19T17:13:47.855Z,101382.20
2023-05-19T17:16:22.027Z,101383.90
2023-05-19T17:18:56.341Z,101383.18
2023-05-19T17:21:29.745Z,101383.30
2023-05-19T17:24:03.848Z,101384.48
2023-05-19T17:26:37.823Z,101382.95
2023-05-19T17:29:11.841Z,101382.11
2023-05-19T17:31:45.651Z,101378.59
2023-05-19T17:34:19.534Z,101378.41
2023-05-19T17:36:53.427Z,101380.92
2023-05-19T17:39:27.266Z,101382.02
2023-05-19T17:42:01.030Z,101382.19
2023-05-19T17:44:35.054Z,101378.55
2023-05-19T17:47:08.958Z,101376.96
2023-05-19T17:49:43.126Z,101377.16
2023-05-19T17:52:19.670Z,101379.41
2023-05-19T17:54:54.833Z,101380.92
2023-05-19T17:57:31.757Z,101381.75
2023-05-19T18:00:06.951Z,101384.08
2023-05-19T18:02:44.502Z,101384.95
2023-05-19T18:05:21.063Z,101387.45
2023-05-19T18:07:55.959Z,101391.30
2023-05-19T18:10:32.091Z,101386.23
2023-05-19T18:13:06.167Z,101386.54
2023-05-19T18:15:40.252Z,101385.57
2023-05-19T18:18:14.128Z,101385.05
2023-05-19T18:20:48.647Z,101385.10
2023-05-19T18:23:22.567Z,101387.34
2023-05-19T18:25:56.232Z,101387.05
2023-05-19T18:28:30.517Z,101387.57
2023-05-19T18:31:05.885Z,101387.41
2023-05-19T18:33:39.414Z,101388.61
2023-05-19T18:36:13.868Z,101395.58
2023-05-19T18:38:48.317Z,101397.64
2023-05-19T18:41:22.010Z,101403.33
2023-05-19T18:43:56.189Z,101408.89
2023-05-19T18:46:30.352Z,101408.01
2023-05-19T18:49:04.994Z,101410.95
2023-05-19T18:51:38.964Z,101412.51
2023-05-19T18:54:12.912Z,101410.44
2023-05-19T18:56:46.648Z,101414.70
2023-05-19T18:59:20.952Z,101416.34
2023-05-19T19:01:55.683Z,101416.79
2023-05-19T19:04:30.133Z,101421.84
2023-05-19T19:07:04.454Z,101420.02
2023-05-19T19:09:37.957Z,101423.52
2023-05-19T19:12:12.013Z,101424.39
2023-05-19T19:14:46.373Z,101426.23
2023-05-19T19:17:20.427Z,101425.36
2023-05-19T19:19:54.459Z,101427.28
2023-05-19T19:22:28.673Z,101428.42
2023-05-19T19:25:02.881Z,101430.66
2023-05-19T19:27:36.801Z,101431.05
2023-05-19T19:30:13.048Z,101431.86
2023-05-19T19:32:47.280Z,101431.30
2023-05-19T19:35:21.329Z,101435.24
2023-05-19T19:37:55.160Z,101434.52
2023-05-19T19:40:29.739Z,101433.56
2023-05-19T19:43:03.645Z,101434.56
2023-05-19T19:45:39.696Z,101440.90
2023-05-19T19:48:14.183Z,101439.32
2023-05-19T19:50:53.465Z,101440.29
2023-05-19T19:53:27.635Z,101438.64
2023-05-19T19:56:02.984Z,101439.73
2023-05-19T19:58:36.998Z,101439.59
2023-05-19T20:01:10.482Z,101443.23
2023-05-19T20:03:44.552Z,101446.02
2023-05-19T20:06:18.777Z,101445.85
2023-05-19T20:08:52.264Z,101440.91
2023-05-19T20:11:27.174Z,101442.10
2023-05-19T20:14:00.865Z,101445.09
2023-05-19T20:16:34.738Z,101442.23
2023-05-19T20:19:09.361Z,101441.30
2023-05-19T20:21:43.290Z,101441.02
2023-05-19T20:24:17.258Z,101438.88
2023-05-19T20:26:50.874Z,101434.80
2023-05-19T20:29:24.374Z,101436.55
2023-05-19T20:31:58.237Z,101440.90
2023-05-19T20:34:32.157Z,101447.39
2023-05-19T20:37:06.284Z,101450.80
2023-05-19T20:39:40.274Z,101456.77
2023-05-19T20:42:14.329Z,101455.95
2023-05-19T20:44:48.112Z,101448.84
2023-05-19T20:47:21.828Z,101448.90
2023-05-19T20:49:55.648Z,101446.55
2023-05-19T20:52:29.318Z,101446.00
2023-05-19T20:55:03.323Z,101445.33
2023-05-19T20:57:37.582Z,101446.66
2023-05-19T21:00:13.429Z,101447.51
2023-05-19T21:02:47.119Z,101449.95
2023-05-19T21:05:21.806Z,101448.90
2023-05-19T21:07:55.903Z,101450.98
2023-05-19T21:10:30.218Z,101452.09
2023-05-19T21:13:04.373Z,101453.20
2023-05-19T21:15:37.913Z,101452.21
2023-05-19T21:18:12.262Z,101448.08
2023-05-19T21:20:46.584Z,101449.38
2023-05-19T21:23:20.715Z,101447.07
2023-05-19T21:25:55.393Z,101446.67
2023-05-19T21:28:29.401Z,101448.82
2023-05-19T21:31:02.949Z,101451.69
2023-05-19T21:33:37.594Z,101451.77
2023-05-19T21:36:11.855Z,101448.46
2023-05-19T21:38:45.441Z,101450.14
2023-05-19T21:41:19.060Z,101451.61
2023-05-19T21:43:52.736Z,101450.85
2023-05-19T21:46:28.236Z,101447.00
2023-05-19T21:49:01.997Z,101448.92
2023-05-19T21:51:36.254Z,101448.77
2023-05-19T21:54:10.491Z,101448.96
2023-05-19T21:56:44.388Z,101451.59
2023-05-19T21:59:18.535Z,101448.29
2023-05-19T22:01:52.500Z,101446.27
2023-05-19T22:04:27.474Z,101446.90
2023-05-19T22:07:01.881Z,101444.77
2023-05-19T22:09:35.857Z,101445.55
2023-05-19T22:12:11.203Z,101447.89
2023-05-19T22:14:45.062Z,101450.77
2023-05-19T22:17:18.987Z,101453.45
2023-05-19T22:19:52.971Z,101451.02
2023-05-19T22:22:27.191Z,101449.33
2023-05-19T22:25:00.880Z,101446.77
2023-05-19T22:27:34.712Z,101448.48
2023-05-19T22:30:10.044Z,101450.66
2023-05-19T22:32:44.015Z,101452.67
2023-05-19T22:35:18.160Z,101453.05
2023-05-19T22:37:51.878Z,101451.83
2023-05-19T22:40:25.821Z,101449.59
2023-05-19T22:42:59.488Z,101446.02
2023-05-19T22:45:33.426Z,101447.79
2023-05-19T22:48:08.588Z,101444.09
2023-05-19T22:50:42.542Z,101447.43
2023-05-19T22:53:16.684Z,101452.95
2023-05-19T22:55:50.418Z,101454.41
2023-05-19T22:58:24.097Z,101454.90
2023-05-19T23:00:57.947Z,101451.70
2023-05-19T23:03:31.741Z,101452.55
2023-05-19T23:06:05.594Z,101451.48
2023-05-19T23:08:39.496Z,101448.36
2023-05-19T23:11:13.005Z,101448.55
2023-05-19T23:13:47.114Z,101445.27
2023-05-19T23:16:21.033Z,101442.77
2023-05-19T23:18:58.493Z,101441.04
2023-05-19T23:21:42.930Z,101446.77
2023-05-19T23:24:16.848Z,101450.57
2023-05-19T23:26:51.087Z,101447.83
2023-05-19T23:29:25.036Z,101446.95
2023-05-19T23:31:58.644Z,101444.80
2023-05-19T23:34:32.241Z,101445.20
2023-05-19T23:37:06.214Z,101443.93
2023-05-19T23:39:40.240Z,101440.31
2023-05-19T23:42:14.327Z,101438.41
2023-05-19T23:44:47.729Z,101440.24
2023-05-19T23:47:21.832Z,101438.46
2023-05-19T23:49:55.569Z,101442.47
2023-05-19T23:52:29.597Z,101438.25
2023-05-19T23:55:03.951Z,101437.96
2023-05-19T23:57:38.265Z,101437.01
